sensor_id;sensor_type;location;lat;lon;timestamp;pressure;altitude;pressure_sealevel;temperature;humidity
77011;BME280;65945;53.148;17.956;2023-08-21T00:01:58;101667.45;;;19.98;83.65
77011;BME280;65945;53.148;17.956;2023-08-21T00:04:25;101666.61;;;19.96;83.56
77011;BME280;65945;53.148;17.956;2023-08-21T00:06:52;101666.13;;;19.94;83.51
77011;BME280;65945;53.148;17.956;2023-08-21T00:09:18;101667.23;;;19.91;83.34
77011;BME280;65945;53.148;17.956;2023-08-21T00:11:45;101663.81;;;19.88;83.45
77011;BME280;65945;53.148;17.956;2023-08-21T00:14:11;101662.41;;;19.85;83.24
77011;BME280;65945;53.148;17.956;2023-08-21T00:16:38;101657.61;;;19.82;83.32
77011;BME280;65945;53.148;17.956;2023-08-21T00:19:04;101654.58;;;19.79;83.30
77011;BME280;65945;53.148;17.956;2023-08-21T00:21:31;101655.75;;;19.76;83.37
77011;BME280;65945;53.148;17.956;2023-08-21T00:23:58;101656.52;;;19.73;83.26
77011;BME280;65945;53.148;17.956;2023-08-21T00:26:24;101656.20;;;19.70;83.48
77011;BME280;65945;53.148;17.956;2023-08-21T00:28:51;101653.58;;;19.65;83.42
77011;BME280;65945;53.148;17.956;2023-08-21T00:31:17;101654.97;;;19.62;83.58
77011;BME280;65945;53.148;17.956;2023-08-21T00:33:44;101650.46;;;19.57;83.62
77011;BME280;65945;53.148;17.956;2023-08-21T00:36:11;101652.39;;;19.53;83.68
77011;BME280;65945;53.148;17.956;2023-08-21T00:38:37;101649.52;;;19.49;83.79
77011;BME280;65945;53.148;17.956;2023-08-21T00:41:04;101647.80;;;19.44;83.79
77011;BME280;65945;53.148;17.956;2023-08-21T00:43:32;101656.88;;;19.41;83.71
77011;BME280;65945;53.148;17.956;2023-08-21T00:45:59;101656.39;;;19.37;83.80
77011;BME280;65945;53.148;17.956;2023-08-21T00:48:26;101658.25;;;19.33;84.00
77011;BME280;65945;53.148;17.956;2023-08-21T00:50:52;101662.34;;;19.28;84.05
77011;BME280;65945;53.148;17.956;2023-08-21T00:53:19;101665.33;;;19.24;84.11
77011;BME280;65945;53.148;17.956;2023-08-21T00:55:46;101663.08;;;19.19;84.12
77011;BME280;65945;53.148;17.956;2023-08-21T00:58:13;101664.77;;;19.15;84.27
77011;BME280;65945;53.148;17.956;2023-08-21T01:00:41;101662.20;;;19.11;84.22
77011;BME280;65945;53.148;17.956;2023-08-21T01:03:08;101661.58;;;19.07;84.27
77011;BME280;65945;53.148;17.956;2023-08-21T01:05:35;101662.34;;;19.04;84.35
77011;BME280;65945;53.148;17.956;2023-08-21T01:08:10;101659.29;;;19.00;84.47
77011;BME280;65945;53.148;17.956;2023-08-21T01:10:56;101663.77;;;18.96;84.48
77011;BME280;65945;53.148;17.956;2023-08-21T01:16:11;101667.98;;;18.83;84.72
77011;BME280;65945;53.148;17.956;2023-08-21T01:18:40;101667.05;;;18.79;84.91
77011;BME280;65945;53.148;17.956;2023-08-21T01:21:07;101668.19;;;18.74;84.92
77011;BME280;65945;53.148;17.956;2023-08-21T01:23:35;101670.48;;;18.70;84.94
77011;BME280;65945;53.148;17.956;2023-08-21T01:26:03;101667.44;;;18.66;84.93
77011;BME280;65945;53.148;17.956;2023-08-21T01:28:31;101662.55;;;18.61;84.98
77011;BME280;65945;53.148;17.956;2023-08-21T01:31:27;101663.53;;;18.58;85.05
77011;BME280;65945;53.148;17.956;2023-08-21T01:34:01;101657.01;;;18.52;85.28
77011;BME280;65945;53.148;17.956;2023-08-21T01:36:31;101657.60;;;18.48;85.16
77011;BME280;65945;53.148;17.956;2023-08-21T01:38:58;101656.96;;;18.44;85.10
77011;BME280;65945;53.148;17.956;2023-08-21T01:41:25;101658.94;;;18.40;85.19
77011;BME280;65945;53.148;17.956;2023-08-21T01:43:52;101654.17;;;18.36;85.10
77011;BME280;65945;53.148;17.956;2023-08-21T01:46:18;101656.16;;;18.32;85.16
77011;BME280;65945;53.148;17.956;2023-08-21T01:48:45;101656.67;;;18.27;85.30
77011;BME280;65945;53.148;17.956;2023-08-21T01:51:11;101656.55;;;18.22;85.24
77011;BME280;65945;53.148;17.956;2023-08-21T01:53:38;101664.29;;;18.19;85.42
77011;BME280;65945;53.148;17.956;2023-08-21T01:56:05;101663.17;;;18.14;85.54
77011;BME280;65945;53.148;17.956;2023-08-21T01:58:32;101666.39;;;18.10;85.52
77011;BME280;65945;53.148;17.956;2023-08-21T02:00:59;101671.62;;;18.05;85.69
77011;BME280;65945;53.148;17.956;2023-08-21T02:03:26;101673.05;;;18.01;85.55
77011;BME280;65945;53.148;17.956;2023-08-21T02:05:56;101672.34;;;17.97;85.62
77011;BME280;65945;53.148;17.956;2023-08-21T02:08:30;101667.65;;;17.93;85.49
77011;BME280;65945;53.148;17.956;2023-08-21T02:11:01;101663.67;;;17.88;85.44
77011;BME280;65945;53.148;17.956;2023-08-21T02:13:28;101666.40;;;17.84;85.42
77011;BME280;65945;53.148;17.956;2023-08-21T02:15:54;101668.94;;;17.79;85.49
77011;BME280;65945;53.148;17.956;2023-08-21T02:18:21;101670.13;;;17.74;85.37
77011;BME280;65945;53.148;17.956;2023-08-21T02:20:48;101677.18;;;17.69;85.49
77011;BME280;65945;53.148;17.956;2023-08-21T02:23:16;101672.73;;;17.63;85.57
77011;BME280;65945;53.148;17.956;2023-08-21T02:25:42;101667.88;;;17.58;85.58
77011;BME280;65945;53.148;17.956;2023-08-21T02:28:11;101670.33;;;17.54;85.64
77011;BME280;65945;53.148;17.956;2023-08-21T02:30:41;101674.38;;;17.50;85.47
77011;BME280;65945;53.148;17.956;2023-08-21T02:33:08;101674.95;;;17.46;85.51
77011;BME280;65945;53.148;17.956;2023-08-21T02:35:34;101677.91;;;17.43;85.64
77011;BME280;65945;53.148;17.956;2023-08-21T02:38:02;101676.34;;;17.40;85.48
77011;BME280;65945;53.148;17.956;2023-08-21T02:40:28;101677.70;;;17.36;85.73
77011;BME280;65945;53.148;17.956;2023-08-21T02:42:55;101666.84;;;17.33;85.63
77011;BME280;65945;53.148;17.956;2023-08-21T02:45:22;101668.73;;;17.29;85.63
77011;BME280;65945;53.148;17.956;2023-08-21T02:47:48;101675.17;;;17.24;85.68
77011;BME280;65945;53.148;17.956;2023-08-21T02:50:15;101669.80;;;17.20;85.74
77011;BME280;65945;53.148;17.956;2023-08-21T02:52:41;101670.29;;;17.16;85.66
77011;BME280;65945;53.148;17.956;2023-08-21T02:55:08;101667.21;;;17.11;85.85
77011;BME280;65945;53.148;17.956;2023-08-21T02:57:35;101667.98;;;17.04;85.85
77011;BME280;65945;53.148;17.956;2023-08-21T03:00:02;101668.39;;;16.98;86.01
77011;BME280;65945;53.148;17.956;2023-08-21T03:02:29;101668.86;;;16.93;85.95
77011;BME280;65945;53.148;17.956;2023-08-21T03:04:55;101671.12;;;16.88;85.91
77011;BME280;65945;53.148;17.956;2023-08-21T03:07:22;101670.37;;;16.83;86.05
77011;BME280;65945;53.148;17.956;2023-08-21T03:09:49;101664.14;;;16.78;86.13
77011;BME280;65945;53.148;17.956;2023-08-21T03:12:17;101660.30;;;16.74;86.28
77011;BME280;65945;53.148;17.956;2023-08-21T03:14:46;101663.08;;;16.69;86.28
77011;BME280;65945;53.148;17.956;2023-08-21T03:17:12;101668.11;;;16.64;86.24
77011;BME280;65945;53.148;17.956;2023-08-21T03:19:39;101674.33;;;16.61;86.11
77011;BME280;65945;53.148;17.956;2023-08-21T03:22:06;101678.69;;;16.58;86.27
77011;BME280;65945;53.148;17.956;2023-08-21T03:24:32;101684.03;;;16.55;86.27
77011;BME280;65945;53.148;17.956;2023-08-21T03:26:59;101693.02;;;16.52;86.32
77011;BME280;65945;53.148;17.956;2023-08-21T03:29:26;101698.00;;;16.49;86.41
77011;BME280;65945;53.148;17.956;2023-08-21T03:31:53;101698.23;;;16.45;86.48
77011;BME280;65945;53.148;17.956;2023-08-21T03:34:23;101696.26;;;16.41;86.50
77011;BME280;65945;53.148;17.956;2023-08-21T03:36:51;101692.88;;;16.39;86.37
77011;BME280;65945;53.148;17.956;2023-08-21T03:39:18;101696.48;;;16.36;86.40
77011;BME280;65945;53.148;17.956;2023-08-21T03:41:46;101691.88;;;16.32;86.35
77011;BME280;65945;53.148;17.956;2023-08-21T03:44:12;101690.20;;;16.29;86.37
77011;BME280;65945;53.148;17.956;2023-08-21T03:46:39;101684.61;;;16.27;86.54
77011;BME280;65945;53.148;17.956;2023-08-21T03:49:06;101686.51;;;16.25;86.53
77011;BME280;65945;53.148;17.956;2023-08-21T03:51:33;101684.79;;;16.23;86.68
77011;BME280;65945;53.148;17.956;2023-08-21T03:53:59;101685.61;;;16.22;86.74
77011;BME280;65945;53.148;17.956;2023-08-21T03:56:26;101680.35;;;16.21;86.58
77011;BME280;65945;53.148;17.956;2023-08-21T03:58:54;101679.42;;;16.21;86.62
77011;BME280;65945;53.148;17.956;2023-08-21T04:01:21;101679.88;;;16.20;86.73
77011;BME280;65945;53.148;17.956;2023-08-21T04:03:47;101686.88;;;16.19;86.62
77011;BME280;65945;53.148;17.956;2023-08-21T04:06:14;101687.02;;;16.18;86.61
77011;BME280;65945;53.148;17.956;2023-08-21T04:08:40;101687.02;;;16.18;86.68
77011;BME280;65945;53.148;17.956;2023-08-21T04:11:07;101689.03;;;16.18;86.65
77011;BME280;65945;53.148;17.956;2023-08-21T04:13:34;101689.41;;;16.18;86.71
77011;BME280;65945;53.148;17.956;2023-08-21T04:16:01;101686.72;;;16.19;86.61
77011;BME280;65945;53.148;17.956;2023-08-21T04:18:27;101693.15;;;16.20;86.63
77011;BME280;65945;53.148;17.956;2023-08-21T04:20:54;101692.39;;;16.22;86.66
77011;BME280;65945;53.148;17.956;2023-08-21T04:23:21;101693.14;;;16.24;86.66
77011;BME280;65945;53.148;17.956;2023-08-21T04:25:47;101692.10;;;16.27;86.73
77011;BME280;65945;53.148;17.956;2023-08-21T04:28:14;101690.75;;;16.30;86.57
77011;BME280;65945;53.148;17.956;2023-08-21T04:30:41;101694.27;;;16.33;86.47
77011;BME280;65945;53.148;17.956;2023-08-21T04:33:10;101695.50;;;16.38;86.48
77011;BME280;65945;53.148;17.956;2023-08-21T04:35:38;101691.76;;;16.41;86.48
77011;BME280;65945;53.148;17.956;2023-08-21T04:38:05;101695.61;;;16.45;86.44
77011;BME280;65945;53.148;17.956;2023-08-21T04:40:33;101694.53;;;16.49;86.25
77011;BME280;65945;53.148;17.956;2023-08-21T04:43:01;101698.52;;;16.53;86.21
77011;BME280;65945;53.148;17.956;2023-08-21T04:45:27;101697.50;;;16.57;86.14
77011;BME280;65945;53.148;17.956;2023-08-21T04:47:54;101700.58;;;16.61;86.08
77011;BME280;65945;53.148;17.956;2023-08-21T04:50:21;101696.92;;;16.65;85.97
77011;BME280;65945;53.148;17.956;2023-08-21T04:52:49;101698.52;;;16.70;85.62
77011;BME280;65945;53.148;17.956;2023-08-21T04:55:16;101700.42;;;16.74;85.68
77011;BME280;65945;53.148;17.956;2023-08-21T04:57:43;101698.41;;;16.78;85.54
77011;BME280;65945;53.148;17.956;2023-08-21T05:00:11;101703.26;;;16.83;85.41
77011;BME280;65945;53.148;17.956;2023-08-21T05:02:39;101707.63;;;16.86;85.22
77011;BME280;65945;53.148;17.956;2023-08-21T05:05:06;101708.77;;;16.91;85.34
77011;BME280;65945;53.148;17.956;2023-08-21T05:07:34;101709.44;;;16.96;85.03
77011;BME280;65945;53.148;17.956;2023-08-21T05:10:01;101712.14;;;17.02;84.85
77011;BME280;65945;53.148;17.956;2023-08-21T05:12:29;101717.17;;;17.08;84.88
77011;BME280;65945;53.148;17.956;2023-08-21T05:14:56;101716.55;;;17.15;84.55
77011;BME280;65945;53.148;17.956;2023-08-21T05:17:24;101718.80;;;17.21;84.32
77011;BME280;65945;53.148;17.956;2023-08-21T05:19:53;101722.27;;;17.28;84.29
77011;BME280;65945;53.148;17.956;2023-08-21T05:22:19;101718.73;;;17.35;83.96
77011;BME280;65945;53.148;17.956;2023-08-21T05:24:46;101721.57;;;17.42;83.89
77011;BME280;65945;53.148;17.956;2023-08-21T05:27:13;101719.98;;;17.50;83.80
77011;BME280;65945;53.148;17.956;2023-08-21T05:29:40;101720.53;;;17.59;83.60
77011;BME280;65945;53.148;17.956;2023-08-21T05:32:06;101725.34;;;17.67;83.17
77011;BME280;65945;53.148;17.956;2023-08-21T05:34:33;101730.21;;;17.75;82.78
77011;BME280;65945;53.148;17.956;2023-08-21T05:36:59;101730.60;;;17.83;82.49
77011;BME280;65945;53.148;17.956;2023-08-21T05:39:26;101734.78;;;17.92;82.67
77011;BME280;65945;53.148;17.956;2023-08-21T05:41:53;101740.67;;;18.02;82.39
77011;BME280;65945;53.148;17.956;2023-08-21T05:44:19;101740.02;;;18.09;81.95
77011;BME280;65945;53.148;17.956;2023-08-21T05:46:47;101736.00;;;18.16;81.70
77011;BME280;65945;53.148;17.956;2023-08-21T05:49:13;101737.67;;;18.23;81.29
77011;BME280;65945;53.148;17.956;2023-08-21T05:51:40;101736.41;;;18.29;80.57
77011;BME280;65945;53.148;17.956;2023-08-21T05:54:08;101740.24;;;18.35;80.58
77011;BME280;65945;53.148;17.956;2023-08-21T05:56:36;101743.20;;;18.44;80.46
77011;BME280;65945;53.148;17.956;2023-08-21T05:59:02;101741.32;;;18.52;79.74
77011;BME280;65945;53.148;17.956;2023-08-21T06:01:29;101743.60;;;18.58;78.92
77011;BME280;65945;53.148;17.956;2023-08-21T06:03:57;101747.67;;;18.66;78.80
77011;BME280;65945;53.148;17.956;2023-08-21T06:06:34;101745.16;;;18.73;78.77
77011;BME280;65945;53.148;17.956;2023-08-21T06:09:01;101746.14;;;18.82;78.65
77011;BME280;65945;53.148;17.956;2023-08-21T06:11:28;101744.33;;;18.91;78.47
77011;BME280;65945;53.148;17.956;2023-08-21T06:13:54;101750.43;;;19.02;78.21
77011;BME280;65945;53.148;17.956;2023-08-21T06:16:21;101751.31;;;19.11;77.44
77011;BME280;65945;53.148;17.956;2023-08-21T06:18:48;101751.11;;;19.20;76.55
77011;BME280;65945;53.148;17.956;2023-08-21T06:21:15;101753.41;;;19.29;76.86
77011;BME280;65945;53.148;17.956;2023-08-21T06:23:41;101754.72;;;19.39;76.65
77011;BME280;65945;53.148;17.956;2023-08-21T06:26:08;101756.06;;;19.48;76.39
77011;BME280;65945;53.148;17.956;2023-08-21T06:28:35;101756.94;;;19.59;76.38
77011;BME280;65945;53.148;17.956;2023-08-21T06:31:01;101755.42;;;19.70;75.35
77011;BME280;65945;53.148;17.956;2023-08-21T06:33:30;101754.65;;;19.81;74.63
77011;BME280;65945;53.148;17.956;2023-08-21T06:35:57;101755.45;;;19.90;74.72
77011;BME280;65945;53.148;17.956;2023-08-21T06:38:23;101756.38;;;19.98;73.48
77011;BME280;65945;53.148;17.956;2023-08-21T06:40:50;101757.16;;;20.03;72.62
77011;BME280;65945;53.148;17.956;2023-08-21T06:43:18;101754.76;;;20.09;72.31
77011;BME280;65945;53.148;17.956;2023-08-21T06:45:47;101752.20;;;20.13;71.96
77011;BME280;65945;53.148;17.956;2023-08-21T06:48:14;101754.70;;;20.17;71.51
77011;BME280;65945;53.148;17.956;2023-08-21T06:50:40;101753.08;;;20.21;70.20
77011;BME280;65945;53.148;17.956;2023-08-21T06:53:07;101756.11;;;20.21;70.27
77011;BME280;65945;53.148;17.956;2023-08-21T06:55:33;101753.55;;;20.27;71.75
77011;BME280;65945;53.148;17.956;2023-08-21T06:58:00;101757.42;;;20.36;70.82
77011;BME280;65945;53.148;17.956;2023-08-21T07:00:27;101755.23;;;20.44;69.30
77011;BME280;65945;53.148;17.956;2023-08-21T07:02:53;101752.22;;;20.48;68.98
77011;BME280;65945;53.148;17.956;2023-08-21T07:05:20;101745.44;;;20.51;68.28
77011;BME280;65945;53.148;17.956;2023-08-21T07:07:46;101747.45;;;20.54;68.42
77011;BME280;65945;53.148;17.956;2023-08-21T07:10:13;101745.66;;;20.63;68.83
77011;BME280;65945;53.148;17.956;2023-08-21T07:12:40;101741.45;;;20.69;67.87
77011;BME280;65945;53.148;17.956;2023-08-21T07:15:08;101746.94;;;20.78;67.86
77011;BME280;65945;53.148;17.956;2023-08-21T07:17:34;101753.14;;;20.86;67.91
77011;BME280;65945;53.148;17.956;2023-08-21T07:20:02;101754.59;;;20.94;67.09
77011;BME280;65945;53.148;17.956;2023-08-21T07:22:30;101754.20;;;21.02;68.33
77011;BME280;65945;53.148;17.956;2023-08-21T07:24:56;101755.55;;;21.12;67.41
77011;BME280;65945;53.148;17.956;2023-08-21T07:27:23;101755.52;;;21.21;67.38
77011;BME280;65945;53.148;17.956;2023-08-21T07:29:50;101751.42;;;21.32;67.13
77011;BME280;65945;53.148;17.956;2023-08-21T07:32:17;101747.09;;;21.42;66.58
77011;BME280;65945;53.148;17.956;2023-08-21T07:34:43;101750.28;;;21.56;67.51
77011;BME280;65945;53.148;17.956;2023-08-21T07:37:10;101757.96;;;21.73;67.39
77011;BME280;65945;53.148;17.956;2023-08-21T07:39:36;101761.23;;;21.91;66.66
77011;BME280;65945;53.148;17.956;2023-08-21T07:42:03;101759.19;;;22.02;64.04
77011;BME280;65945;53.148;17.956;2023-08-21T07:44:30;101760.34;;;22.04;63.12
77011;BME280;65945;53.148;17.956;2023-08-21T07:46:56;101759.30;;;22.06;64.42
77011;BME280;65945;53.148;17.956;2023-08-21T07:49:23;101760.60;;;22.10;62.16
77011;BME280;65945;53.148;17.956;2023-08-21T07:51:49;101759.06;;;22.08;62.43
77011;BME280;65945;53.148;17.956;2023-08-21T07:54:16;101753.26;;;22.13;64.39
77011;BME280;65945;53.148;17.956;2023-08-21T07:56:42;101756.65;;;22.27;63.87
77011;BME280;65945;53.148;17.956;2023-08-21T07:59:09;101753.35;;;22.37;63.15
77011;BME280;65945;53.148;17.956;2023-08-21T08:01:36;101753.95;;;22.47;62.86
77011;BME280;65945;53.148;17.956;2023-08-21T08:04:02;101756.80;;;22.62;63.41
77011;BME280;65945;53.148;17.956;2023-08-21T08:06:29;101757.57;;;22.77;63.61
77011;BME280;65945;53.148;17.956;2023-08-21T08:08:56;101759.56;;;22.94;63.34
77011;BME280;65945;53.148;17.956;2023-08-21T08:11:23;101758.37;;;23.10;61.80
77011;BME280;65945;53.148;17.956;2023-08-21T08:13:49;101757.75;;;23.17;61.88
77011;BME280;65945;53.148;17.956;2023-08-21T08:16:16;101756.91;;;23.21;61.31
77011;BME280;65945;53.148;17.956;2023-08-21T08:18:43;101754.96;;;23.21;59.08
77011;BME280;65945;53.148;17.956;2023-08-21T08:21:09;101752.25;;;23.19;60.54
77011;BME280;65945;53.148;17.956;2023-08-21T08:23:37;101751.43;;;23.30;61.10
77011;BME280;65945;53.148;17.956;2023-08-21T08:26:04;101744.88;;;23.43;60.50
77011;BME280;65945;53.148;17.956;2023-08-21T08:28:31;101749.42;;;23.57;60.22
77011;BME280;65945;53.148;17.956;2023-08-21T08:30:57;101751.11;;;23.70;59.07
77011;BME280;65945;53.148;17.956;2023-08-21T08:33:24;101753.55;;;23.79;57.71
77011;BME280;65945;53.148;17.956;2023-08-21T08:35:51;101750.82;;;23.78;55.51
77011;BME280;65945;53.148;17.956;2023-08-21T08:38:18;101753.52;;;23.75;56.84
77011;BME280;65945;53.148;17.956;2023-08-21T08:40:46;101746.91;;;23.79;54.94
77011;BME280;65945;53.148;17.956;2023-08-21T08:43:14;101737.12;;;23.76;53.95
77011;BME280;65945;53.148;17.956;2023-08-21T08:45:41;101739.08;;;23.75;55.02
77011;BME280;65945;53.148;17.956;2023-08-21T08:48:08;101742.95;;;23.83;55.60
77011;BME280;65945;53.148;17.956;2023-08-21T08:50:37;101739.91;;;23.92;56.36
77011;BME280;65945;53.148;17.956;2023-08-21T08:53:07;101742.40;;;24.04;56.55
77011;BME280;65945;53.148;17.956;2023-08-21T08:55:34;101747.82;;;24.16;55.38
77011;BME280;65945;53.148;17.956;2023-08-21T08:58:01;101744.61;;;24.21;52.69
77011;BME280;65945;53.148;17.956;2023-08-21T09:00:27;101744.10;;;24.24;52.18
77011;BME280;65945;53.148;17.956;2023-08-21T09:02:56;101744.30;;;24.30;53.51
77011;BME280;65945;53.148;17.956;2023-08-21T09:05:23;101739.98;;;24.44;54.42
77011;BME280;65945;53.148;17.956;2023-08-21T09:08:22;101745.56;;;24.60;53.25
77011;BME280;65945;53.148;17.956;2023-08-21T09:10:49;101743.12;;;24.70;53.19
77011;BME280;65945;53.148;17.956;2023-08-21T09:13:17;101740.45;;;24.79;52.70
77011;BME280;65945;53.148;17.956;2023-08-21T09:15:46;101736.88;;;24.85;52.09
77011;BME280;65945;53.148;17.956;2023-08-21T09:18:13;101733.22;;;24.92;51.37
77011;BME280;65945;53.148;17.956;2023-08-21T09:20:42;101729.34;;;24.94;50.81
77011;BME280;65945;53.148;17.956;2023-08-21T09:23:13;101723.02;;;24.94;51.77
77011;BME280;65945;53.148;17.956;2023-08-21T09:25:40;101725.30;;;25.01;51.99
77011;BME280;65945;53.148;17.956;2023-08-21T09:28:08;101713.91;;;25.10;51.89
77011;BME280;65945;53.148;17.956;2023-08-21T09:30:53;101713.08;;;25.24;52.27
77011;BME280;65945;53.148;17.956;2023-08-21T09:33:22;101712.14;;;25.42;51.45
77011;BME280;65945;53.148;17.956;2023-08-21T09:35:53;101716.50;;;25.50;50.31
77011;BME280;65945;53.148;17.956;2023-08-21T09:38:20;101721.73;;;25.54;48.84
77011;BME280;65945;53.148;17.956;2023-08-21T09:40:52;101717.96;;;25.55;48.42
77011;BME280;65945;53.148;17.956;2023-08-21T09:43:20;101712.70;;;25.52;48.74
77011;BME280;65945;53.148;17.956;2023-08-21T09:45:53;101713.91;;;25.57;48.39
77011;BME280;65945;53.148;17.956;2023-08-21T09:48:22;101709.92;;;25.60;46.86
77011;BME280;65945;53.148;17.956;2023-08-21T09:50:53;101709.52;;;25.60;45.09
77011;BME280;65945;53.148;17.956;2023-08-21T09:53:20;101708.77;;;25.56;44.76
77011;BME280;65945;53.148;17.956;2023-08-21T09:55:52;101708.16;;;25.58;45.77
77011;BME280;65945;53.148;17.956;2023-08-21T09:58:20;101705.91;;;25.67;45.93
77011;BME280;65945;53.148;17.956;2023-08-21T10:00:49;101702.52;;;25.77;46.68
77011;BME280;65945;53.148;17.956;2023-08-21T10:03:20;101702.38;;;25.87;47.84
77011;BME280;65945;53.148;17.956;2023-08-21T10:05:48;101706.67;;;26.07;48.29
77011;BME280;65945;53.148;17.956;2023-08-21T10:08:23;101707.05;;;26.23;46.64
77011;BME280;65945;53.148;17.956;2023-08-21T10:10:50;101703.70;;;26.26;44.70
77011;BME280;65945;53.148;17.956;2023-08-21T10:13:17;101700.43;;;26.13;44.16
77011;BME280;65945;53.148;17.956;2023-08-21T10:15:45;101699.24;;;26.00;44.02
77011;BME280;65945;53.148;17.956;2023-08-21T10:18:29;101703.45;;;25.94;44.94
77011;BME280;65945;53.148;17.956;2023-08-21T10:21:10;101706.46;;;25.90;45.11
77011;BME280;65945;53.148;17.956;2023-08-21T10:23:38;101703.77;;;25.85;44.65
77011;BME280;65945;53.148;17.956;2023-08-21T10:26:06;101698.14;;;25.78;44.32
77011;BME280;65945;53.148;17.956;2023-08-21T10:28:41;101697.91;;;25.71;43.78
77011;BME280;65945;53.148;17.956;2023-08-21T10:31:35;101698.05;;;25.69;45.35
77011;BME280;65945;53.148;17.956;2023-08-21T10:34:04;101696.55;;;25.75;46.96
77011;BME280;65945;53.148;17.956;2023-08-21T10:39:21;101693.36;;;25.77;47.27
77011;BME280;65945;53.148;17.956;2023-08-21T10:42:00;101693.48;;;25.83;48.26
77011;BME280;65945;53.148;17.956;2023-08-21T10:44:38;101694.66;;;25.95;48.39
77011;BME280;65945;53.148;17.956;2023-08-21T10:49:46;101696.49;;;26.25;47.82
77011;BME280;65945;53.148;17.956;2023-08-21T10:52:14;101697.73;;;26.32;48.28
77011;BME280;65945;53.148;17.956;2023-08-21T10:54:49;101697.27;;;26.45;48.35
77011;BME280;65945;53.148;17.956;2023-08-21T10:57:16;101695.73;;;26.61;47.71
77011;BME280;65945;53.148;17.956;2023-08-21T11:00:10;101690.81;;;26.75;47.81
77011;BME280;65945;53.148;17.956;2023-08-21T11:02:39;101693.93;;;26.86;47.24
77011;BME280;65945;53.148;17.956;2023-08-21T11:05:07;101694.52;;;26.91;47.31
77011;BME280;65945;53.148;17.956;2023-08-21T11:07:37;101695.48;;;26.98;47.49
77011;BME280;65945;53.148;17.956;2023-08-21T11:10:10;101692.38;;;27.02;46.91
77011;BME280;65945;53.148;17.956;2023-08-21T11:12:37;101692.40;;;27.01;47.13
77011;BME280;65945;53.148;17.956;2023-08-21T11:15:05;101693.52;;;27.03;47.12
77011;BME280;65945;53.148;17.956;2023-08-21T11:17:32;101691.75;;;27.07;47.00
77011;BME280;65945;53.148;17.956;2023-08-21T11:20:00;101693.66;;;27.09;47.31
77011;BME280;65945;53.148;17.956;2023-08-21T11:22:28;101691.51;;;27.07;47.04
77011;BME280;65945;53.148;17.956;2023-08-21T11:24:56;101686.88;;;27.08;47.32
77011;BME280;65945;53.148;17.956;2023-08-21T11:27:23;101690.34;;;27.10;47.02
77011;BME280;65945;53.148;17.956;2023-08-21T11:29:51;101687.15;;;27.11;47.22
77011;BME280;65945;53.148;17.956;2023-08-21T11:32:22;101690.63;;;27.14;47.13
77011;BME280;65945;53.148;17.956;2023-08-21T11:37:25;101689.58;;;27.14;47.16
77011;BME280;65945;53.148;17.956;2023-08-21T11:39:54;101682.45;;;27.14;47.07
77011;BME280;65945;53.148;17.956;2023-08-21T11:42:25;101684.98;;;27.13;47.01
77011;BME280;65945;53.148;17.956;2023-08-21T11:44:55;101685.98;;;27.19;46.97
77011;BME280;65945;53.148;17.956;2023-08-21T11:47:23;101678.33;;;27.28;46.84
77011;BME280;65945;53.148;17.956;2023-08-21T11:49:50;101678.42;;;27.33;46.01
77011;BME280;65945;53.148;17.956;2023-08-21T11:52:19;101687.45;;;27.33;46.49
77011;BME280;65945;53.148;17.956;2023-08-21T11:54:51;101680.44;;;27.39;46.53
77011;BME280;65945;53.148;17.956;2023-08-21T11:57:18;101678.20;;;27.40;45.85
77011;BME280;65945;53.148;17.956;2023-08-21T11:59:51;101680.16;;;27.38;46.01
77011;BME280;65945;53.148;17.956;2023-08-21T12:05:05;101677.98;;;27.50;46.50
77011;BME280;65945;53.148;17.956;2023-08-21T12:07:35;101674.05;;;27.64;46.29
77011;BME280;65945;53.148;17.956;2023-08-21T12:10:01;101679.61;;;27.74;45.97
77011;BME280;65945;53.148;17.956;2023-08-21T12:12:28;101679.14;;;27.79;45.71
77011;BME280;65945;53.148;17.956;2023-08-21T12:14:54;101674.70;;;27.87;45.92
77011;BME280;65945;53.148;17.956;2023-08-21T12:17:21;101678.50;;;27.98;45.43
77011;BME280;65945;53.148;17.956;2023-08-21T12:19:48;101682.91;;;28.02;45.20
77011;BME280;65945;53.148;17.956;2023-08-21T12:22:14;101678.48;;;28.04;45.16
77011;BME280;65945;53.148;17.956;2023-08-21T12:24:41;101681.54;;;28.10;45.28
77011;BME280;65945;53.148;17.956;2023-08-21T12:27:07;101683.10;;;28.11;44.92
77011;BME280;65945;53.148;17.956;2023-08-21T12:29:34;101681.15;;;28.04;44.75
77011;BME280;65945;53.148;17.956;2023-08-21T12:32:01;101675.52;;;27.89;44.64
77011;BME280;65945;53.148;17.956;2023-08-21T12:34:29;101674.41;;;27.74;44.96
77011;BME280;65945;53.148;17.956;2023-08-21T12:36:56;101671.98;;;27.67;45.53
77011;BME280;65945;53.148;17.956;2023-08-21T12:39:23;101662.60;;;27.66;45.42
77011;BME280;65945;53.148;17.956;2023-08-21T12:41:49;101668.69;;;27.60;45.49
77011;BME280;65945;53.148;17.956;2023-08-21T12:44:16;101669.39;;;27.48;45.85
77011;BME280;65945;53.148;17.956;2023-08-21T12:46:42;101667.27;;;27.36;45.55
77011;BME280;65945;53.148;17.956;2023-08-21T12:49:09;101661.84;;;27.18;46.16
77011;BME280;65945;53.148;17.956;2023-08-21T12:51:36;101665.80;;;27.01;46.56
77011;BME280;65945;53.148;17.956;2023-08-21T12:54:03;101669.04;;;26.84;47.11
77011;BME280;65945;53.148;17.956;2023-08-21T12:56:30;101673.33;;;26.63;46.86
77011;BME280;65945;53.148;17.956;2023-08-21T12:58:56;101673.05;;;26.42;47.70